Sonie — WDD2812 — position and weather

sailwx.info

Track history (hours):
 
Tides and Currents Weather Stations Pressure Air Temp Water Temp Dewpoint Dewpoint Depression Visibility Wind Speed Wind Dir Waves Ship Positions

Sonie

Owner: TUG SONIE, LLC, NEW CASTLE, DE. More information available from US FCC via Universal Licensing System and Coast Guard Vessel Documentation Center.

Last reported at 2017-Sep-24 10:00 UTC. Time now 2017-Sep-24 10:13 UTC.
Position N 39°43' W 075°31'.

Length 26 m; draft 3.5 m.

Type: Tug. MMSI: 367120230.

Date/timePositionNaut miles runAvg speedWind from/ knotsBaromVisibWave heightAir tempDewpointWater temp
2017-Sep-24 10:00N 39°43' W 075°31'0 0.0
2017-Sep-24 09:31N 39°43' W 075°31'0 0.0
2017-Sep-24 09:00N 39°43' W 075°31'0 0.0
2017-Sep-24 08:30N 39°43' W 075°31'0 0.0
2017-Sep-24 08:00N 39°43' W 075°31'0 0.0
2017-Sep-24 07:30N 39°43' W 075°31'3 6.0
2017-Sep-24 07:00N 39°45' W 075°29'4 7.9
2017-Sep-24 06:30N 39°48' W 075°25'0 0.6
2017-Sep-24 06:00N 39°48' W 075°25'0 0.7
2017-Sep-24 05:30N 39°48' W 075°25'2 4.8
2017-Sep-24 05:00N 39°47' W 075°28'2 4.6
2017-Sep-24 04:30N 39°45' W 075°29'2 4.4
2017-Sep-24 04:00N 39°43' W 075°30'2 4.0
2017-Sep-24 03:31N 39°41' W 075°31'2 3.1
2017-Sep-24 03:00N 39°40' W 075°32'2 3.1
2017-Sep-24 02:30N 39°39' W 075°33'2 3.8
2017-Sep-24 02:00N 39°37' W 075°35'2 3.5
2017-Sep-24 01:30N 39°35' W 075°34'2 3.4
2017-Sep-24 01:00N 39°34' W 075°33'3 5.7
2017-Sep-24 00:30N 39°33' W 075°36'3 6.3
2017-Sep-24 00:01N 39°33' W 075°40'3 6.8
2017-Sep-23 23:31N 39°32' W 075°45'3 6.3
2017-Sep-23 23:00N 39°32' W 075°49'3 5.8
2017-Sep-23 22:30N 39°31' W 075°52'3 5.8
2017-Sep-23 22:00N 39°30' W 075°56'3 5.8
2017-Sep-23 21:31N 39°28' W 075°58'3 5.8
2017-Sep-23 21:01N 39°26' W 076°01'3 5.7
2017-Sep-23 20:31N 39°24' W 076°03'3 5.6
2017-Sep-23 20:00N 39°23' W 076°07'33 0.8
2017-Sep-22 02:01N 39°41' W 075°31'4 8.1
2017-Sep-22 01:30N 39°45' W 075°29'5 9.3
2017-Sep-22 01:00N 39°48' W 075°25'0 0.7
2017-Sep-22 00:30N 39°48' W 075°25'0 0.0
2017-Sep-22 00:00N 39°48' W 075°25'0 0.0
2017-Sep-21 23:30N 39°48' W 075°25'0 0.0
2017-Sep-21 23:01N 39°48' W 075°25'3 5.5
2017-Sep-21 22:30N 39°50' W 075°22'3 5.4
2017-Sep-21 22:01N 39°51' W 075°19'2 4.7
2017-Sep-21 21:30N 39°51' W 075°16'0 0.0
2017-Sep-21 21:00N 39°51' W 075°16'0 0.0
2017-Sep-21 20:30N 39°51' W 075°16'2 3.1
2017-Sep-21 20:00N 39°51' W 075°18'1 1.5
2017-Sep-21 19:31N 39°51' W 075°17'1 1.5
2017-Sep-21 19:00N 39°51' W 075°16'2 4.7
2017-Sep-21 18:31N 39°51' W 075°19'510.5
2017-Sep-21 18:01N 39°48' W 075°25'510.2
2017-Sep-21 17:31N 39°45' W 075°30'2 3.7
2017-Sep-21 17:01N 39°43' W 075°31'0 0.0
2017-Sep-21 16:31N 39°43' W 075°31'0 0.0
2017-Sep-21 16:00N 39°43' W 075°31'0 0.0
2017-Sep-21 15:30N 39°43' W 075°31'0 0.0
2017-Sep-21 15:01N 39°43' W 075°31'0 0.0
2017-Sep-21 14:31N 39°43' W 075°31'0 0.0
2017-Sep-21 14:01N 39°43' W 075°31'0 0.0
2017-Sep-21 13:30N 39°43' W 075°31'0 0.0
2017-Sep-21 13:00N 39°43' W 075°31'0 0.0
2017-Sep-21 12:30N 39°43' W 075°31'0 0.0
2017-Sep-21 12:00N 39°43' W 075°31'0 0.0
2017-Sep-21 11:30N 39°43' W 075°31'0 0.0
2017-Sep-21 11:01N 39°43' W 075°31'0 0.0
2017-Sep-21 10:30N 39°43' W 075°31'0 0.0
2017-Sep-21 10:00N 39°43' W 075°31'0 0.0
2017-Sep-21 09:30N 39°43' W 075°31'4 7.1
2017-Sep-21 09:01N 39°40' W 075°33'5 9.4
2017-Sep-21 08:31N 39°35' W 075°33'4 8.1
2017-Sep-21 08:00N 39°31' W 075°33'5 9.6
2017-Sep-21 07:31N 39°26' W 075°32'511.0
2017-Sep-21 07:01N 39°22' W 075°28'611.1
2017-Sep-21 06:31N 39°18' W 075°23'611.3
2017-Sep-21 06:01N 39°14' W 075°18'611.6
2017-Sep-21 05:30N 39°09' W 075°14'5 9.8
2017-Sep-21 05:01N 39°04' W 075°13'611.2
2017-Sep-21 04:31N 38°58' W 075°12'1 1.6
2017-Sep-21 03:40N 38°57' W 075°11'0 2.1
2017-Sep-21 03:30N 38°57' W 075°11'5 4.9
2017-Sep-21 02:31N 39°02' W 075°14'011.3
2017-Sep-21 02:30N 39°02' W 075°14'8 9.6
2017-Sep-21 01:38N 39°10' W 075°16'210.8
2017-Sep-21 01:28N 39°11' W 075°17'510.8
2017-Sep-21 01:01N 39°16' W 075°20'611.7
2017-Sep-21 00:31N 39°20' W 075°25'612.4
2017-Sep-21 00:01N 39°25' W 075°31'611.8
2017-Sep-20 23:30N 39°30' W 075°33'612.5
2017-Sep-20 23:01N 39°36' W 075°34'713.9
2017-Sep-20 22:31N 39°43' W 075°31'1 1.0
2017-Sep-20 22:00N 39°43' W 075°31'0 0.0
2017-Sep-20 21:30N 39°43' W 075°31'0 0.0
2017-Sep-20 21:00N 39°43' W 075°31'0 0.0
2017-Sep-20 20:30N 39°43' W 075°31'0 0.0
2017-Sep-20 20:00N 39°43' W 075°31'0 0.0
2017-Sep-20 19:30N 39°43' W 075°31'0 0.5
2017-Sep-20 19:00N 39°43' W 075°31'1 1.8
2017-Sep-20 18:30N 39°43' W 075°31'2 3.6
2017-Sep-20 18:00N 39°41' W 075°31'2 4.6
2017-Sep-20 17:30N 39°43' W 075°31'0 0.5
2017-Sep-20 17:00N 39°43' W 075°31'0 0.0
2017-Sep-20 16:30N 39°43' W 075°31'0 0.0
2017-Sep-20 16:00N 39°43' W 075°31'0 0.0
2017-Sep-20 15:30N 39°43' W 075°31'0 0.0
2017-Sep-20 15:00N 39°43' W 075°31'0 0.0
2017-Sep-20 14:00N 39°43' W 075°31'0 0.0
2017-Sep-20 13:30N 39°43' W 075°31'0 0.0
2017-Sep-20 13:00N 39°43' W 075°31'0 0.0
2017-Sep-20 12:30N 39°43' W 075°31'0 0.0
2017-Sep-20 12:01N 39°43' W 075°31'0 0.0
2017-Sep-20 11:30N 39°43' W 075°31'0 0.0
2017-Sep-20 11:00N 39°43' W 075°31'0 0.0
2017-Sep-20 10:30N 39°43' W 075°31'0 0.0
2017-Sep-20 10:00N 39°43' W 075°31'5 9.3
2017-Sep-20 09:30N 39°47' W 075°28'511.0
2017-Sep-20 09:00N 39°50' W 075°22'510.9
2017-Sep-20 08:30N 39°51' W 075°15'4 7.1
2017-Sep-20 08:00N 39°53' W 075°11'0 0.0
2017-Sep-20 07:31N 39°53' W 075°11'0 0.0
2017-Sep-20 07:01N 39°53' W 075°11'0 0.0
2017-Sep-20 06:31N 39°53' W 075°11'0 0.0
2017-Sep-20 06:01N 39°53' W 075°11'0 0.0
2017-Sep-20 05:30N 39°53' W 075°11'0 0.0
2017-Sep-20 05:00N 39°53' W 075°11'0 0.0
2017-Sep-20 04:31N 39°53' W 075°11'0 0.0
2017-Sep-20 04:01N 39°53' W 075°11'0 0.0
2017-Sep-20 03:30N 39°53' W 075°11'0 0.0
2017-Sep-20 03:01N 39°53' W 075°11'0 0.0
2017-Sep-20 02:31N 39°53' W 075°11'0 0.0
2017-Sep-20 02:00N 39°53' W 075°11'0 0.0
2017-Sep-20 01:30N 39°53' W 075°11'0 0.0
2017-Sep-20 01:01N 39°53' W 075°11'0 0.0
2017-Sep-20 00:30N 39°53' W 075°11'0 0.0
2017-Sep-20 00:01N 39°53' W 075°11'0 0.0
2017-Sep-19 23:31N 39°53' W 075°11'0 0.0
2017-Sep-19 23:00N 39°53' W 075°11'0 0.0
2017-Sep-19 22:30N 39°53' W 075°11'0 0.0
2017-Sep-19 22:00N 39°53' W 075°11'0 0.0
2017-Sep-19 21:30N 39°53' W 075°11'0 0.0
2017-Sep-19 21:00N 39°53' W 075°11'0 0.1
2017-Sep-19 20:30N 39°53' W 075°11'0 0.0
2017-Sep-19 20:00N 39°53' W 075°11'0 0.0
2017-Sep-19 19:30N 39°53' W 075°11'0 0.0
2017-Sep-19 19:00N 39°53' W 075°11'0 0.0
2017-Sep-19 18:30N 39°53' W 075°11'0 0.0
2017-Sep-19 18:00N 39°53' W 075°11'0 0.0
2017-Sep-19 17:30N 39°53' W 075°11'0 0.0
2017-Sep-19 17:00N 39°53' W 075°11'0 0.0
2017-Sep-19 16:30N 39°53' W 075°11'0 0.0
2017-Sep-19 16:00N 39°53' W 075°11'0 0.0
2017-Sep-19 15:30N 39°53' W 075°11'0 0.0
2017-Sep-19 15:00N 39°53' W 075°11'0 0.0
2017-Sep-19 14:30N 39°53' W 075°11'0 0.0
2017-Sep-19 14:01N 39°53' W 075°11'0 0.0
2017-Sep-19 13:30N 39°53' W 075°11'0 0.0
2017-Sep-19 13:00N 39°53' W 075°11'0 0.0
2017-Sep-19 12:30N 39°53' W 075°11'0 0.0
2017-Sep-19 12:00N 39°53' W 075°11'0 0.1
2017-Sep-19 11:31N 39°53' W 075°11'0 0.1
2017-Sep-19 11:00N 39°53' W 075°11'0 0.0
2017-Sep-19 10:30N 39°53' W 075°11'0 0.0
2017-Sep-19 10:00N 39°53' W 075°11'0 0.0
2017-Sep-19 09:30N 39°53' W 075°11'0 0.0
2017-Sep-19 09:01N 39°53' W 075°11'0 0.0
2017-Sep-19 08:30N 39°53' W 075°11'0 0.0
2017-Sep-19 08:01N 39°53' W 075°11'0 0.0
2017-Sep-19 07:31N 39°53' W 075°11'0 0.0
2017-Sep-19 07:00N 39°53' W 075°11'0 0.0
2017-Sep-19 06:30N 39°53' W 075°11'0 0.0
2017-Sep-19 06:00N 39°53' W 075°11'3 5.6
2017-Sep-19 05:30N 39°51' W 075°14'1 1.7
2017-Sep-19 05:00N 39°51' W 075°15'2 4.5
2017-Sep-19 04:31N 39°52' W 075°13'1 2.9
2017-Sep-19 04:01N 39°53' W 075°11'0 0.0
2017-Sep-19 03:31N 39°53' W 075°11'0 0.0
2017-Sep-19 03:01N 39°53' W 075°11'0 0.0
2017-Sep-19 02:30N 39°53' W 075°11'0 0.0
2017-Sep-19 02:00N 39°53' W 075°11'0 0.0
2017-Sep-19 01:30N 39°53' W 075°11'0 0.0
2017-Sep-19 01:00N 39°53' W 075°11'0 0.0
2017-Sep-19 00:30N 39°53' W 075°11'0 0.0
2017-Sep-19 00:01N 39°53' W 075°11'0 0.0
2017-Sep-18 23:30N 39°53' W 075°11'0 0.0
2017-Sep-18 23:00N 39°53' W 075°11'0 0.0
2017-Sep-18 22:30N 39°53' W 075°11'0 0.0
2017-Sep-18 22:00N 39°53' W 075°11'0 0.0
2017-Sep-18 21:30N 39°53' W 075°11'0 0.0
2017-Sep-18 21:00N 39°53' W 075°11'0 0.1
2017-Sep-18 20:31N 39°53' W 075°11'4 8.1
2017-Sep-18 20:00N 39°51' W 075°16'0 1.0
2017-Sep-18 19:30N 39°51' W 075°16'1 1.6
2017-Sep-18 19:00N 39°51' W 075°17'5 9.5
2017-Sep-18 18:30N 39°49' W 075°23'5 9.1
2017-Sep-18 18:00N 39°47' W 075°28'4 8.6
2017-Sep-18 17:30N 39°43' W 075°31'0 0.0
2017-Sep-18 17:01N 39°43' W 075°31'0 0.0
2017-Sep-18 16:30N 39°43' W 075°31'0 0.0
2017-Sep-18 16:01N 39°43' W 075°31'0 0.0
2017-Sep-18 15:31N 39°43' W 075°31'0 0.0
2017-Sep-18 15:00N 39°43' W 075°31'0 0.0
2017-Sep-18 14:30N 39°43' W 075°31'0 0.0
2017-Sep-18 14:00N 39°43' W 075°31'0 0.0
2017-Sep-18 13:30N 39°43' W 075°31'0 0.0
2017-Sep-18 13:00N 39°43' W 075°31'0 0.0
2017-Sep-18 12:31N 39°43' W 075°31'0 0.0
2017-Sep-18 12:01N 39°43' W 075°31'0 0.0
2017-Sep-18 11:30N 39°43' W 075°31'0 0.0
2017-Sep-18 11:00N 39°43' W 075°31'0 0.0
2017-Sep-18 10:30N 39°43' W 075°31'0 0.4
2017-Sep-18 10:00N 39°43' W 075°31'3 5.2
2017-Sep-18 09:30N 39°40' W 075°31'3 5.2
2017-Sep-18 09:01N 39°43' W 075°31'0 0.0
2017-Sep-18 08:31N 39°43' W 075°31'0 0.0
2017-Sep-18 08:01N 39°43' W 075°31'0 0.0
2017-Sep-18 07:30N 39°43' W 075°31'0 0.0
2017-Sep-18 07:01N 39°43' W 075°31'0 0.0
2017-Sep-18 06:31N 39°43' W 075°31'4 8.2
2017-Sep-18 06:01N 39°46' W 075°28'4 8.4
2017-Sep-18 05:31N 39°49' W 075°24'2 3.8
2017-Sep-18 05:01N 39°48' W 075°26'0 0.0
2017-Sep-18 04:30N 39°48' W 075°26'0 0.0
2017-Sep-18 04:00N 39°48' W 075°26'1 2.2
2017-Sep-18 03:31N 39°49' W 075°25'5 9.1
2017-Sep-18 03:01N 39°51' W 075°19'4 8.3
2017-Sep-18 02:31N 39°52' W 075°14'1 1.1
2017-Sep-18 02:01N 39°52' W 075°13'0 0.0
2017-Sep-18 01:30N 39°52' W 075°13'0 0.0
2017-Sep-18 01:01N 39°52' W 075°13'0 0.0
2017-Sep-18 00:30N 39°52' W 075°13'0 0.0
2017-Sep-18 00:01N 39°52' W 075°13'0 0.3
2017-Sep-17 23:31N 39°52' W 075°14'0 0.2
2017-Sep-17 23:00N 39°52' W 075°14'0 0.0
2017-Sep-17 22:30N 39°52' W 075°14'0 0.0
2017-Sep-17 22:00N 39°52' W 075°14'0 0.0
2017-Sep-17 21:30N 39°52' W 075°14'0 0.0
2017-Sep-17 21:00N 39°52' W 075°14'0 0.0
2017-Sep-17 20:30N 39°52' W 075°14'0 0.0
2017-Sep-17 20:00N 39°52' W 075°14'0 0.0
2017-Sep-17 19:30N 39°52' W 075°14'0 0.0
2017-Sep-17 19:00N 39°52' W 075°14'0 0.0
2017-Sep-17 18:30N 39°52' W 075°14'0 0.0
2017-Sep-17 18:00N 39°52' W 075°14'0 0.0
2017-Sep-17 17:30N 39°52' W 075°14'0 0.3
2017-Sep-17 17:00N 39°52' W 075°14'0 0.1
2017-Sep-17 16:30N 39°52' W 075°13'0 0.0
2017-Sep-17 16:00N 39°52' W 075°13'0 0.0
2017-Sep-17 15:30N 39°52' W 075°13'0 0.0
2017-Sep-17 15:00N 39°52' W 075°13'0 0.0
2017-Sep-17 14:30N 39°52' W 075°13'0 0.0
2017-Sep-17 14:01N 39°52' W 075°13'0 0.0
2017-Sep-17 13:30N 39°52' W 075°13'0 0.1
2017-Sep-17 13:00N 39°52' W 075°13'0 0.0
2017-Sep-17 12:30N 39°52' W 075°13'0 0.0
2017-Sep-17 12:00N 39°52' W 075°13'0 0.3
2017-Sep-17 11:31N 39°52' W 075°14'0 0.1
2017-Sep-17 11:01N 39°52' W 075°14'0 0.0
2017-Sep-17 10:31N 39°52' W 075°14'0 0.0
2017-Sep-17 10:01N 39°52' W 075°14'0 0.0
2017-Sep-17 09:31N 39°52' W 075°14'0 0.0
2017-Sep-17 09:00N 39°52' W 075°14'0 0.0
2017-Sep-17 08:30N 39°52' W 075°14'0 0.0
2017-Sep-17 08:00N 39°52' W 075°14'0 0.0
2017-Sep-17 07:31N 39°52' W 075°14'0 0.0
2017-Sep-17 07:01N 39°52' W 075°14'0 0.0
2017-Sep-17 06:30N 39°52' W 075°14'0 0.1
2017-Sep-17 06:00N 39°52' W 075°14'0 0.0
2017-Sep-17 05:30N 39°52' W 075°14'0 0.1
2017-Sep-17 05:00N 39°52' W 075°14'0 0.3
2017-Sep-17 04:30N 39°52' W 075°14'0 0.1
2017-Sep-17 04:00N 39°52' W 075°13'0 0.0
2017-Sep-17 03:31N 39°52' W 075°13'0 0.0
2017-Sep-17 03:00N 39°52' W 075°13'0 0.0
2017-Sep-17 02:31N 39°52' W 075°13'0 0.0
2017-Sep-17 02:00N 39°52' W 075°13'0 0.0
2017-Sep-17 01:30N 39°52' W 075°13'0 0.0
2017-Sep-17 01:00N 39°52' W 075°13'0 0.0
2017-Sep-17 00:30N 39°52' W 075°13'0 0.0
2017-Sep-17 00:00N 39°52' W 075°13'0 0.1
2017-Sep-16 23:31N 39°52' W 075°13'0 0.1
2017-Sep-16 23:00N 39°52' W 075°13'0 0.2
2017-Sep-16 22:30N 39°52' W 075°13'0 0.3
2017-Sep-16 22:00N 39°52' W 075°14'0 0.1
2017-Sep-16 21:30N 39°52' W 075°14'0 0.0
2017-Sep-16 21:00N 39°52' W 075°14'0 0.0
2017-Sep-16 20:31N 39°52' W 075°14'0 0.0
2017-Sep-16 20:01N 39°52' W 075°14'0 0.0
2017-Sep-16 19:31N 39°52' W 075°14'0 0.0
2017-Sep-16 19:00N 39°52' W 075°14'0 0.0
2017-Sep-16 18:30N 39°52' W 075°14'0 0.0
2017-Sep-16 18:00N 39°52' W 075°14'0 0.6
2017-Sep-16 17:30N 39°51' W 075°14'2 3.6
2017-Sep-16 17:00N 39°51' W 075°16'0 0.0
2017-Sep-16 16:30N 39°51' W 075°16'0 0.2
2017-Sep-16 16:00N 39°51' W 075°16'2 3.3
2017-Sep-16 15:30N 39°51' W 075°18'2 3.3
2017-Sep-16 15:00N 39°51' W 075°16'3 5.4
2017-Sep-16 14:30N 39°52' W 075°13'0 0.1
2017-Sep-16 14:01N 39°52' W 075°13'1 1.6
2017-Sep-16 13:30N 39°53' W 075°12'1 2.1
2017-Sep-16 13:00N 39°53' W 075°11'0 0.0
2017-Sep-16 12:30N 39°53' W 075°11'0 0.0
2017-Sep-16 12:01N 39°53' W 075°11'0 0.0
2017-Sep-16 11:31N 39°53' W 075°11'0 0.0
2017-Sep-16 11:01N 39°53' W 075°11'4 8.8
2017-Sep-16 10:31N 39°51' W 075°16'0 0.3
2017-Sep-16 10:01N 39°51' W 075°16'0 0.3
2017-Sep-16 09:30N 39°51' W 075°16'4 8.1
2017-Sep-16 09:01N 39°50' W 075°22'4 7.6
2017-Sep-16 08:30N 39°48' W 075°26'0 0.0
2017-Sep-16 08:01N 39°48' W 075°26'0 0.0
2017-Sep-16 07:31N 39°48' W 075°26'0 0.0
2017-Sep-16 07:01N 39°48' W 075°26'0 0.0
2017-Sep-16 06:30N 39°48' W 075°26'0 0.0
2017-Sep-16 06:00N 39°48' W 075°26'0 0.0
2017-Sep-16 05:30N 39°48' W 075°26'0 0.0
2017-Sep-16 05:00N 39°48' W 075°26'0 0.0
2017-Sep-16 04:30N 39°48' W 075°26'0 0.0
2017-Sep-16 04:01N 39°48' W 075°26'0 0.0
2017-Sep-16 03:30N 39°48' W 075°26'0 0.0
2017-Sep-16 03:00N 39°48' W 075°26'0 0.0
2017-Sep-16 02:31N 39°48' W 075°26'1 2.5
2017-Sep-16 02:01N 39°49' W 075°24'0 0.2
2017-Sep-16 01:31N 39°49' W 075°24'3 5.6
2017-Sep-16 01:01N 39°50' W 075°21'5 9.4
2017-Sep-16 00:30N 39°51' W 075°15'4 7.6
2017-Sep-16 00:01N 39°53' W 075°11'0 0.0
2017-Sep-15 23:30N 39°53' W 075°11'0 0.0
2017-Sep-15 23:00N 39°53' W 075°11'0 0.0
2017-Sep-15 22:30N 39°53' W 075°11'0 0.0
2017-Sep-15 22:00N 39°53' W 075°11'0 0.0
2017-Sep-15 21:30N 39°53' W 075°11'0 0.0
2017-Sep-15 21:00N 39°53' W 075°11'0 0.0
2017-Sep-15 20:30N 39°53' W 075°11'0 0.0
2017-Sep-15 20:00N 39°53' W 075°11'0 0.0
2017-Sep-15 19:30N 39°53' W 075°11'0 0.0
2017-Sep-15 19:00N 39°53' W 075°11'0 0.0
2017-Sep-15 18:30N 39°53' W 075°11'0 0.0
2017-Sep-15 18:00N 39°53' W 075°11'0 0.0
2017-Sep-15 17:30N 39°53' W 075°11'0 0.0
2017-Sep-15 17:00N 39°53' W 075°11'0 0.0
2017-Sep-15 16:30N 39°53' W 075°11'0 0.0
2017-Sep-15 16:00N 39°53' W 075°11'0 0.0
2017-Sep-15 15:30N 39°53' W 075°11'0 0.0
2017-Sep-15 15:01N 39°53' W 075°11'0 0.0
2017-Sep-15 14:30N 39°53' W 075°11'0 0.0
2017-Sep-15 14:00N 39°53' W 075°11'0 0.0
2017-Sep-15 13:30N 39°53' W 075°11'2 3.8
2017-Sep-15 13:01N 39°52' W 075°13'0 0.0
2017-Sep-15 12:31N 39°52' W 075°13'0 0.0
2017-Sep-15 12:00N 39°52' W 075°13'1 1.6
2017-Sep-15 11:30N 39°52' W 075°14'3 6.0
2017-Sep-15 11:01N 39°51' W 075°18'3 6.3
2017-Sep-15 10:30N 39°50' W 075°22'4 7.3
2017-Sep-15 10:00N 39°48' W 075°26'0 0.0
2017-Sep-15 09:31N 39°48' W 075°26'0 0.0
2017-Sep-15 09:01N 39°48' W 075°26'0 0.0
2017-Sep-15 08:31N 39°48' W 075°26'0 0.0
2017-Sep-15 08:01N 39°48' W 075°26'0 0.0
2017-Sep-15 07:30N 39°48' W 075°26'0 0.0
2017-Sep-15 07:01N 39°48' W 075°26'0 0.0
2017-Sep-15 06:31N 39°48' W 075°26'0 0.0
2017-Sep-15 06:00N 39°48' W 075°26'0 0.0
2017-Sep-15 05:31N 39°48' W 075°26'0 0.0
2017-Sep-15 05:00N 39°48' W 075°26'1 2.0
2017-Sep-15 04:30N 39°48' W 075°25'0 0.2
2017-Sep-15 04:00N 39°48' W 075°25'0 0.6
2017-Sep-15 03:31N 39°49' W 075°24'1 2.5
2017-Sep-15 03:00N 39°48' W 075°26'4 8.7
2017-Sep-15 02:31N 39°45' W 075°30'2 4.0
2017-Sep-15 02:00N 39°43' W 075°31'0 0.0
2017-Sep-15 01:30N 39°43' W 075°31'0 0.0
2017-Sep-15 01:00N 39°43' W 075°31'0 0.0
2017-Sep-15 00:30N 39°43' W 075°31'0 0.4
2017-Sep-15 00:00N 39°43' W 075°31'5 9.3
2017-Sep-14 23:30N 39°47' W 075°28'2 4.6
2017-Sep-14 23:00N 39°48' W 075°25'0 0.4
2017-Sep-14 22:30N 39°48' W 075°25'0 0.2
2017-Sep-14 22:00N 39°48' W 075°25'4 7.4
2017-Sep-14 21:30N 39°46' W 075°29'3 6.6
2017-Sep-14 21:00N 39°43' W 075°31'0 0.0
2017-Sep-14 20:30N 39°43' W 075°31'0 0.0
2017-Sep-14 20:00N 39°43' W 075°31'0 0.0
2017-Sep-14 19:30N 39°43' W 075°31'0 0.0
2017-Sep-14 19:00N 39°43' W 075°31'0 0.0
2017-Sep-14 18:30N 39°43' W 075°31'0 0.0
2017-Sep-14 18:00N 39°43' W 075°31'0 0.0
2017-Sep-14 17:30N 39°43' W 075°31'0 0.0
2017-Sep-14 17:00N 39°43' W 075°31'0 0.0
2017-Sep-14 16:30N 39°43' W 075°31'0 0.0
2017-Sep-14 16:00N 39°43' W 075°31'0 0.0
2017-Sep-14 15:30N 39°43' W 075°31'0 0.0
2017-Sep-14 15:00N 39°43' W 075°31'0 0.0
2017-Sep-14 14:30N 39°43' W 075°31'0 0.0
2017-Sep-14 14:01N 39°43' W 075°31'0 0.0
2017-Sep-14 13:30N 39°43' W 075°31'0 0.0
2017-Sep-14 13:00N 39°43' W 075°31'0 0.0
2017-Sep-14 12:31N 39°43' W 075°31'0 0.0
2017-Sep-14 12:01N 39°43' W 075°31'0 0.0
2017-Sep-14 11:31N 39°43' W 075°31'0 0.0
2017-Sep-14 11:01N 39°43' W 075°31'0 0.0
2017-Sep-14 10:31N 39°43' W 075°31'0 0.0
2017-Sep-14 10:01N 39°43' W 075°31'  
Track history (hours):
 
Tides and Currents Weather Stations Pressure Air Temp Water Temp Dewpoint Dewpoint Depression Visibility Wind Speed Wind Dir Waves Ship Positions

Sonie

Owner: TUG SONIE, LLC, NEW CASTLE, DE. More information available from US FCC via Universal Licensing System and Coast Guard Vessel Documentation Center.

Last reported at 2017-Sep-24 10:00 UTC. Time now 2017-Sep-24 10:13 UTC.
Position N 39°43' W 075°31'.

Length 26 m; draft 3.5 m.

Type: Tug. MMSI: 367120230.

Date/timePositionNaut miles runAvg speedWind from/ knotsBaromVisibWave heightAir tempDewpointWater temp
2017-Sep-24 10:00N 39°43' W 075°31'0 0.0
2017-Sep-24 09:31N 39°43' W 075°31'0 0.0
2017-Sep-24 09:00N 39°43' W 075°31'0 0.0
2017-Sep-24 08:30N 39°43' W 075°31'0 0.0
2017-Sep-24 08:00N 39°43' W 075°31'0 0.0
2017-Sep-24 07:30N 39°43' W 075°31'3 6.0
2017-Sep-24 07:00N 39°45' W 075°29'4 7.9
2017-Sep-24 06:30N 39°48' W 075°25'0 0.6
2017-Sep-24 06:00N 39°48' W 075°25'0 0.7
2017-Sep-24 05:30N 39°48' W 075°25'2 4.8
2017-Sep-24 05:00N 39°47' W 075°28'2 4.6
2017-Sep-24 04:30N 39°45' W 075°29'2 4.4
2017-Sep-24 04:00N 39°43' W 075°30'2 4.0
2017-Sep-24 03:31N 39°41' W 075°31'2 3.1
2017-Sep-24 03:00N 39°40' W 075°32'2 3.1
2017-Sep-24 02:30N 39°39' W 075°33'2 3.8
2017-Sep-24 02:00N 39°37' W 075°35'2 3.5
2017-Sep-24 01:30N 39°35' W 075°34'2 3.4
2017-Sep-24 01:00N 39°34' W 075°33'3 5.7
2017-Sep-24 00:30N 39°33' W 075°36'3 6.3
2017-Sep-24 00:01N 39°33' W 075°40'3 6.8
2017-Sep-23 23:31N 39°32' W 075°45'3 6.3
2017-Sep-23 23:00N 39°32' W 075°49'3 5.8
2017-Sep-23 22:30N 39°31' W 075°52'3 5.8
2017-Sep-23 22:00N 39°30' W 075°56'3 5.8
2017-Sep-23 21:31N 39°28' W 075°58'3 5.8
2017-Sep-23 21:01N 39°26' W 076°01'3 5.7
2017-Sep-23 20:31N 39°24' W 076°03'3 5.6
2017-Sep-23 20:00N 39°23' W 076°07'33 0.8
2017-Sep-22 02:01N 39°41' W 075°31'4 8.1
2017-Sep-22 01:30N 39°45' W 075°29'5 9.3
2017-Sep-22 01:00N 39°48' W 075°25'0 0.7
2017-Sep-22 00:30N 39°48' W 075°25'0 0.0
2017-Sep-22 00:00N 39°48' W 075°25'0 0.0
2017-Sep-21 23:30N 39°48' W 075°25'0 0.0
2017-Sep-21 23:01N 39°48' W 075°25'3 5.5
2017-Sep-21 22:30N 39°50' W 075°22'3 5.4
2017-Sep-21 22:01N 39°51' W 075°19'2 4.7
2017-Sep-21 21:30N 39°51' W 075°16'0 0.0
2017-Sep-21 21:00N 39°51' W 075°16'0 0.0
2017-Sep-21 20:30N 39°51' W 075°16'2 3.1
2017-Sep-21 20:00N 39°51' W 075°18'1 1.5
2017-Sep-21 19:31N 39°51' W 075°17'1 1.5
2017-Sep-21 19:00N 39°51' W 075°16'2 4.7
2017-Sep-21 18:31N 39°51' W 075°19'510.5
2017-Sep-21 18:01N 39°48' W 075°25'510.2
2017-Sep-21 17:31N 39°45' W 075°30'2 3.7
2017-Sep-21 17:01N 39°43' W 075°31'0 0.0
2017-Sep-21 16:31N 39°43' W 075°31'0 0.0
2017-Sep-21 16:00N 39°43' W 075°31'0 0.0
2017-Sep-21 15:30N 39°43' W 075°31'0 0.0
2017-Sep-21 15:01N 39°43' W 075°31'0 0.0
2017-Sep-21 14:31N 39°43' W 075°31'0 0.0
2017-Sep-21 14:01N 39°43' W 075°31'0 0.0
2017-Sep-21 13:30N 39°43' W 075°31'0 0.0
2017-Sep-21 13:00N 39°43' W 075°31'0 0.0
2017-Sep-21 12:30N 39°43' W 075°31'0 0.0
2017-Sep-21 12:00N 39°43' W 075°31'0 0.0
2017-Sep-21 11:30N 39°43' W 075°31'0 0.0
2017-Sep-21 11:01N 39°43' W 075°31'0 0.0
2017-Sep-21 10:30N 39°43' W 075°31'0 0.0
2017-Sep-21 10:00N 39°43' W 075°31'0 0.0
2017-Sep-21 09:30N 39°43' W 075°31'4 7.1
2017-Sep-21 09:01N 39°40' W 075°33'5 9.4
2017-Sep-21 08:31N 39°35' W 075°33'4 8.1
2017-Sep-21 08:00N 39°31' W 075°33'5 9.6
2017-Sep-21 07:31N 39°26' W 075°32'511.0
2017-Sep-21 07:01N 39°22' W 075°28'611.1
2017-Sep-21 06:31N 39°18' W 075°23'611.3
2017-Sep-21 06:01N 39°14' W 075°18'611.6
2017-Sep-21 05:30N 39°09' W 075°14'5 9.8
2017-Sep-21 05:01N 39°04' W 075°13'611.2
2017-Sep-21 04:31N 38°58' W 075°12'1 1.6
2017-Sep-21 03:40N 38°57' W 075°11'0 2.1
2017-Sep-21 03:30N 38°57' W 075°11'5 4.9
2017-Sep-21 02:31N 39°02' W 075°14'011.3
2017-Sep-21 02:30N 39°02' W 075°14'8 9.6
2017-Sep-21 01:38N 39°10' W 075°16'210.8
2017-Sep-21 01:28N 39°11' W 075°17'510.8
2017-Sep-21 01:01N 39°16' W 075°20'611.7
2017-Sep-21 00:31N 39°20' W 075°25'612.4
2017-Sep-21 00:01N 39°25' W 075°31'611.8
2017-Sep-20 23:30N 39°30' W 075°33'612.5
2017-Sep-20 23:01N 39°36' W 075°34'713.9
2017-Sep-20 22:31N 39°43' W 075°31'1 1.0
2017-Sep-20 22:00N 39°43' W 075°31'0 0.0
2017-Sep-20 21:30N 39°43' W 075°31'0 0.0
2017-Sep-20 21:00N 39°43' W 075°31'0 0.0
2017-Sep-20 20:30N 39°43' W 075°31'0 0.0
2017-Sep-20 20:00N 39°43' W 075°31'0 0.0
2017-Sep-20 19:30N 39°43' W 075°31'0 0.5
2017-Sep-20 19:00N 39°43' W 075°31'1 1.8
2017-Sep-20 18:30N 39°43' W 075°31'2 3.6
2017-Sep-20 18:00N 39°41' W 075°31'2 4.6
2017-Sep-20 17:30N 39°43' W 075°31'0 0.5
2017-Sep-20 17:00N 39°43' W 075°31'0 0.0
2017-Sep-20 16:30N 39°43' W 075°31'0 0.0
2017-Sep-20 16:00N 39°43' W 075°31'0 0.0
2017-Sep-20 15:30N 39°43' W 075°31'0 0.0
2017-Sep-20 15:00N 39°43' W 075°31'0 0.0
2017-Sep-20 14:00N 39°43' W 075°31'0 0.0
2017-Sep-20 13:30N 39°43' W 075°31'0 0.0
2017-Sep-20 13:00N 39°43' W 075°31'0 0.0
2017-Sep-20 12:30N 39°43' W 075°31'0 0.0
2017-Sep-20 12:01N 39°43' W 075°31'0 0.0
2017-Sep-20 11:30N 39°43' W 075°31'0 0.0
2017-Sep-20 11:00N 39°43' W 075°31'0 0.0
2017-Sep-20 10:30N 39°43' W 075°31'0 0.0
2017-Sep-20 10:00N 39°43' W 075°31'5 9.3
2017-Sep-20 09:30N 39°47' W 075°28'511.0
2017-Sep-20 09:00N 39°50' W 075°22'510.9
2017-Sep-20 08:30N 39°51' W 075°15'4 7.1
2017-Sep-20 08:00N 39°53' W 075°11'0 0.0
2017-Sep-20 07:31N 39°53' W 075°11'0 0.0
2017-Sep-20 07:01N 39°53' W 075°11'0 0.0
2017-Sep-20 06:31N 39°53' W 075°11'0 0.0
2017-Sep-20 06:01N 39°53' W 075°11'0 0.0
2017-Sep-20 05:30N 39°53' W 075°11'0 0.0
2017-Sep-20 05:00N 39°53' W 075°11'0 0.0
2017-Sep-20 04:31N 39°53' W 075°11'0 0.0
2017-Sep-20 04:01N 39°53' W 075°11'0 0.0
2017-Sep-20 03:30N 39°53' W 075°11'0 0.0
2017-Sep-20 03:01N 39°53' W 075°11'0 0.0
2017-Sep-20 02:31N 39°53' W 075°11'0 0.0
2017-Sep-20 02:00N 39°53' W 075°11'0 0.0
2017-Sep-20 01:30N 39°53' W 075°11'0 0.0
2017-Sep-20 01:01N 39°53' W 075°11'0 0.0
2017-Sep-20 00:30N 39°53' W 075°11'0 0.0
2017-Sep-20 00:01N 39°53' W 075°11'0 0.0
2017-Sep-19 23:31N 39°53' W 075°11'0 0.0
2017-Sep-19 23:00N 39°53' W 075°11'0 0.0
2017-Sep-19 22:30N 39°53' W 075°11'0 0.0
2017-Sep-19 22:00N 39°53' W 075°11'0 0.0
2017-Sep-19 21:30N 39°53' W 075°11'0 0.0
2017-Sep-19 21:00N 39°53' W 075°11'0 0.1
2017-Sep-19 20:30N 39°53' W 075°11'0 0.0
2017-Sep-19 20:00N 39°53' W 075°11'0 0.0
2017-Sep-19 19:30N 39°53' W 075°11'0 0.0
2017-Sep-19 19:00N 39°53' W 075°11'0 0.0
2017-Sep-19 18:30N 39°53' W 075°11'0 0.0
2017-Sep-19 18:00N 39°53' W 075°11'0 0.0
2017-Sep-19 17:30N 39°53' W 075°11'0 0.0
2017-Sep-19 17:00N 39°53' W 075°11'0 0.0
2017-Sep-19 16:30N 39°53' W 075°11'0 0.0
2017-Sep-19 16:00N 39°53' W 075°11'0 0.0
2017-Sep-19 15:30N 39°53' W 075°11'0 0.0
2017-Sep-19 15:00N 39°53' W 075°11'0 0.0
2017-Sep-19 14:30N 39°53' W 075°11'0 0.0
2017-Sep-19 14:01N 39°53' W 075°11'0 0.0
2017-Sep-19 13:30N 39°53' W 075°11'0 0.0
2017-Sep-19 13:00N 39°53' W 075°11'0 0.0
2017-Sep-19 12:30N 39°53' W 075°11'0 0.0
2017-Sep-19 12:00N 39°53' W 075°11'0 0.1
2017-Sep-19 11:31N 39°53' W 075°11'0 0.1
2017-Sep-19 11:00N 39°53' W 075°11'0 0.0
2017-Sep-19 10:30N 39°53' W 075°11'0 0.0
2017-Sep-19 10:00N 39°53' W 075°11'0 0.0
2017-Sep-19 09:30N 39°53' W 075°11'0 0.0
2017-Sep-19 09:01N 39°53' W 075°11'0 0.0
2017-Sep-19 08:30N 39°53' W 075°11'0 0.0
2017-Sep-19 08:01N 39°53' W 075°11'0 0.0
2017-Sep-19 07:31N 39°53' W 075°11'0 0.0
2017-Sep-19 07:00N 39°53' W 075°11'0 0.0
2017-Sep-19 06:30N 39°53' W 075°11'0 0.0
2017-Sep-19 06:00N 39°53' W 075°11'3 5.6
2017-Sep-19 05:30N 39°51' W 075°14'1 1.7
2017-Sep-19 05:00N 39°51' W 075°15'2 4.5
2017-Sep-19 04:31N 39°52' W 075°13'1 2.9
2017-Sep-19 04:01N 39°53' W 075°11'0 0.0
2017-Sep-19 03:31N 39°53' W 075°11'0 0.0
2017-Sep-19 03:01N 39°53' W 075°11'0 0.0
2017-Sep-19 02:30N 39°53' W 075°11'0 0.0
2017-Sep-19 02:00N 39°53' W 075°11'0 0.0
2017-Sep-19 01:30N 39°53' W 075°11'0 0.0
2017-Sep-19 01:00N 39°53' W 075°11'0 0.0
2017-Sep-19 00:30N 39°53' W 075°11'0 0.0
2017-Sep-19 00:01N 39°53' W 075°11'0 0.0
2017-Sep-18 23:30N 39°53' W 075°11'0 0.0
2017-Sep-18 23:00N 39°53' W 075°11'0 0.0
2017-Sep-18 22:30N 39°53' W 075°11'0 0.0
2017-Sep-18 22:00N 39°53' W 075°11'0 0.0
2017-Sep-18 21:30N 39°53' W 075°11'0 0.0
2017-Sep-18 21:00N 39°53' W 075°11'0 0.1
2017-Sep-18 20:31N 39°53' W 075°11'4 8.1
2017-Sep-18 20:00N 39°51' W 075°16'0 1.0
2017-Sep-18 19:30N 39°51' W 075°16'1 1.6
2017-Sep-18 19:00N 39°51' W 075°17'5 9.5
2017-Sep-18 18:30N 39°49' W 075°23'5 9.1
2017-Sep-18 18:00N 39°47' W 075°28'4 8.6
2017-Sep-18 17:30N 39°43' W 075°31'0 0.0
2017-Sep-18 17:01N 39°43' W 075°31'0 0.0
2017-Sep-18 16:30N 39°43' W 075°31'0 0.0
2017-Sep-18 16:01N 39°43' W 075°31'0 0.0
2017-Sep-18 15:31N 39°43' W 075°31'0 0.0
2017-Sep-18 15:00N 39°43' W 075°31'0 0.0
2017-Sep-18 14:30N 39°43' W 075°31'0 0.0
2017-Sep-18 14:00N 39°43' W 075°31'0 0.0
2017-Sep-18 13:30N 39°43' W 075°31'0 0.0
2017-Sep-18 13:00N 39°43' W 075°31'0 0.0
2017-Sep-18 12:31N 39°43' W 075°31'0 0.0
2017-Sep-18 12:01N 39°43' W 075°31'0 0.0
2017-Sep-18 11:30N 39°43' W 075°31'0 0.0
2017-Sep-18 11:00N 39°43' W 075°31'0 0.0
2017-Sep-18 10:30N 39°43' W 075°31'0 0.4
2017-Sep-18 10:00N 39°43' W 075°31'3 5.2
2017-Sep-18 09:30N 39°40' W 075°31'3 5.2
2017-Sep-18 09:01N 39°43' W 075°31'0 0.0
2017-Sep-18 08:31N 39°43' W 075°31'0 0.0
2017-Sep-18 08:01N 39°43' W 075°31'0 0.0
2017-Sep-18 07:30N 39°43' W 075°31'0 0.0
2017-Sep-18 07:01N 39°43' W 075°31'0 0.0
2017-Sep-18 06:31N 39°43' W 075°31'4 8.2
2017-Sep-18 06:01N 39°46' W 075°28'4 8.4
2017-Sep-18 05:31N 39°49' W 075°24'2 3.8
2017-Sep-18 05:01N 39°48' W 075°26'0 0.0
2017-Sep-18 04:30N 39°48' W 075°26'0 0.0
2017-Sep-18 04:00N 39°48' W 075°26'1 2.2
2017-Sep-18 03:31N 39°49' W 075°25'5 9.1
2017-Sep-18 03:01N 39°51' W 075°19'4 8.3
2017-Sep-18 02:31N 39°52' W 075°14'1 1.1
2017-Sep-18 02:01N 39°52' W 075°13'0 0.0
2017-Sep-18 01:30N 39°52' W 075°13'0 0.0
2017-Sep-18 01:01N 39°52' W 075°13'0 0.0
2017-Sep-18 00:30N 39°52' W 075°13'0 0.0
2017-Sep-18 00:01N 39°52' W 075°13'0 0.3
2017-Sep-17 23:31N 39°52' W 075°14'0 0.2
2017-Sep-17 23:00N 39°52' W 075°14'0 0.0
2017-Sep-17 22:30N 39°52' W 075°14'0 0.0
2017-Sep-17 22:00N 39°52' W 075°14'0 0.0
2017-Sep-17 21:30N 39°52' W 075°14'0 0.0
2017-Sep-17 21:00N 39°52' W 075°14'0 0.0
2017-Sep-17 20:30N 39°52' W 075°14'0 0.0
2017-Sep-17 20:00N 39°52' W 075°14'0 0.0
2017-Sep-17 19:30N 39°52' W 075°14'0 0.0
2017-Sep-17 19:00N 39°52' W 075°14'0 0.0
2017-Sep-17 18:30N 39°52' W 075°14'0 0.0
2017-Sep-17 18:00N 39°52' W 075°14'0 0.0
2017-Sep-17 17:30N 39°52' W 075°14'0 0.3
2017-Sep-17 17:00N 39°52' W 075°14'0 0.1
2017-Sep-17 16:30N 39°52' W 075°13'0 0.0
2017-Sep-17 16:00N 39°52' W 075°13'0 0.0
2017-Sep-17 15:30N 39°52' W 075°13'0 0.0
2017-Sep-17 15:00N 39°52' W 075°13'0 0.0
2017-Sep-17 14:30N 39°52' W 075°13'0 0.0
2017-Sep-17 14:01N 39°52' W 075°13'0 0.0
2017-Sep-17 13:30N 39°52' W 075°13'0 0.1
2017-Sep-17 13:00N 39°52' W 075°13'0 0.0
2017-Sep-17 12:30N 39°52' W 075°13'0 0.0
2017-Sep-17 12:00N 39°52' W 075°13'0 0.3
2017-Sep-17 11:31N 39°52' W 075°14'0 0.1
2017-Sep-17 11:01N 39°52' W 075°14'0 0.0
2017-Sep-17 10:31N 39°52' W 075°14'0 0.0
2017-Sep-17 10:01N 39°52' W 075°14'0 0.0
2017-Sep-17 09:31N 39°52' W 075°14'0 0.0
2017-Sep-17 09:00N 39°52' W 075°14'0 0.0
2017-Sep-17 08:30N 39°52' W 075°14'0 0.0
2017-Sep-17 08:00N 39°52' W 075°14'0 0.0
2017-Sep-17 07:31N 39°52' W 075°14'0 0.0
2017-Sep-17 07:01N 39°52' W 075°14'0 0.0
2017-Sep-17 06:30N 39°52' W 075°14'0 0.1
2017-Sep-17 06:00N 39°52' W 075°14'0 0.0
2017-Sep-17 05:30N 39°52' W 075°14'0 0.1
2017-Sep-17 05:00N 39°52' W 075°14'0 0.3
2017-Sep-17 04:30N 39°52' W 075°14'0 0.1
2017-Sep-17 04:00N 39°52' W 075°13'0 0.0
2017-Sep-17 03:31N 39°52' W 075°13'0 0.0
2017-Sep-17 03:00N 39°52' W 075°13'0 0.0
2017-Sep-17 02:31N 39°52' W 075°13'0 0.0
2017-Sep-17 02:00N 39°52' W 075°13'0 0.0
2017-Sep-17 01:30N 39°52' W 075°13'0 0.0
2017-Sep-17 01:00N 39°52' W 075°13'0 0.0
2017-Sep-17 00:30N 39°52' W 075°13'0 0.0
2017-Sep-17 00:00N 39°52' W 075°13'0 0.1
2017-Sep-16 23:31N 39°52' W 075°13'0 0.1
2017-Sep-16 23:00N 39°52' W 075°13'0 0.2
2017-Sep-16 22:30N 39°52' W 075°13'0 0.3
2017-Sep-16 22:00N 39°52' W 075°14'0 0.1
2017-Sep-16 21:30N 39°52' W 075°14'0 0.0
2017-Sep-16 21:00N 39°52' W 075°14'0 0.0
2017-Sep-16 20:31N 39°52' W 075°14'0 0.0
2017-Sep-16 20:01N 39°52' W 075°14'0 0.0
2017-Sep-16 19:31N 39°52' W 075°14'0 0.0
2017-Sep-16 19:00N 39°52' W 075°14'0 0.0
2017-Sep-16 18:30N 39°52' W 075°14'0 0.0
2017-Sep-16 18:00N 39°52' W 075°14'0 0.6
2017-Sep-16 17:30N 39°51' W 075°14'2 3.6
2017-Sep-16 17:00N 39°51' W 075°16'0 0.0
2017-Sep-16 16:30N 39°51' W 075°16'0 0.2
2017-Sep-16 16:00N 39°51' W 075°16'2 3.3
2017-Sep-16 15:30N 39°51' W 075°18'2 3.3
2017-Sep-16 15:00N 39°51' W 075°16'3 5.4
2017-Sep-16 14:30N 39°52' W 075°13'0 0.1
2017-Sep-16 14:01N 39°52' W 075°13'1 1.6
2017-Sep-16 13:30N 39°53' W 075°12'1 2.1
2017-Sep-16 13:00N 39°53' W 075°11'0 0.0
2017-Sep-16 12:30N 39°53' W 075°11'0 0.0
2017-Sep-16 12:01N 39°53' W 075°11'0 0.0
2017-Sep-16 11:31N 39°53' W 075°11'0 0.0
2017-Sep-16 11:01N 39°53' W 075°11'4 8.8
2017-Sep-16 10:31N 39°51' W 075°16'0 0.3
2017-Sep-16 10:01N 39°51' W 075°16'0 0.3
2017-Sep-16 09:30N 39°51' W 075°16'4 8.1
2017-Sep-16 09:01N 39°50' W 075°22'4 7.6
2017-Sep-16 08:30N 39°48' W 075°26'0 0.0
2017-Sep-16 08:01N 39°48' W 075°26'0 0.0
2017-Sep-16 07:31N 39°48' W 075°26'0 0.0
2017-Sep-16 07:01N 39°48' W 075°26'0 0.0
2017-Sep-16 06:30N 39°48' W 075°26'0 0.0
2017-Sep-16 06:00N 39°48' W 075°26'0 0.0
2017-Sep-16 05:30N 39°48' W 075°26'0 0.0
2017-Sep-16 05:00N 39°48' W 075°26'0 0.0
2017-Sep-16 04:30N 39°48' W 075°26'0 0.0
2017-Sep-16 04:01N 39°48' W 075°26'0 0.0
2017-Sep-16 03:30N 39°48' W 075°26'0 0.0
2017-Sep-16 03:00N 39°48' W 075°26'0 0.0
2017-Sep-16 02:31N 39°48' W 075°26'1 2.5
2017-Sep-16 02:01N 39°49' W 075°24'0 0.2
2017-Sep-16 01:31N 39°49' W 075°24'3 5.6
2017-Sep-16 01:01N 39°50' W 075°21'5 9.4
2017-Sep-16 00:30N 39°51' W 075°15'4 7.6
2017-Sep-16 00:01N 39°53' W 075°11'0 0.0
2017-Sep-15 23:30N 39°53' W 075°11'0 0.0
2017-Sep-15 23:00N 39°53' W 075°11'0 0.0
2017-Sep-15 22:30N 39°53' W 075°11'0 0.0
2017-Sep-15 22:00N 39°53' W 075°11'0 0.0
2017-Sep-15 21:30N 39°53' W 075°11'0 0.0
2017-Sep-15 21:00N 39°53' W 075°11'0 0.0
2017-Sep-15 20:30N 39°53' W 075°11'0 0.0
2017-Sep-15 20:00N 39°53' W 075°11'0 0.0
2017-Sep-15 19:30N 39°53' W 075°11'0 0.0
2017-Sep-15 19:00N 39°53' W 075°11'0 0.0
2017-Sep-15 18:30N 39°53' W 075°11'0 0.0
2017-Sep-15 18:00N 39°53' W 075°11'0 0.0
2017-Sep-15 17:30N 39°53' W 075°11'0 0.0
2017-Sep-15 17:00N 39°53' W 075°11'0 0.0
2017-Sep-15 16:30N 39°53' W 075°11'0 0.0
2017-Sep-15 16:00N 39°53' W 075°11'0 0.0
2017-Sep-15 15:30N 39°53' W 075°11'0 0.0
2017-Sep-15 15:01N 39°53' W 075°11'0 0.0
2017-Sep-15 14:30N 39°53' W 075°11'0 0.0
2017-Sep-15 14:00N 39°53' W 075°11'0 0.0
2017-Sep-15 13:30N 39°53' W 075°11'2 3.8
2017-Sep-15 13:01N 39°52' W 075°13'0 0.0
2017-Sep-15 12:31N 39°52' W 075°13'0 0.0
2017-Sep-15 12:00N 39°52' W 075°13'1 1.6
2017-Sep-15 11:30N 39°52' W 075°14'3 6.0
2017-Sep-15 11:01N 39°51' W 075°18'3 6.3
2017-Sep-15 10:30N 39°50' W 075°22'4 7.3
2017-Sep-15 10:00N 39°48' W 075°26'0 0.0
2017-Sep-15 09:31N 39°48' W 075°26'0 0.0
2017-Sep-15 09:01N 39°48' W 075°26'0 0.0
2017-Sep-15 08:31N 39°48' W 075°26'0 0.0
2017-Sep-15 08:01N 39°48' W 075°26'0 0.0
2017-Sep-15 07:30N 39°48' W 075°26'0 0.0
2017-Sep-15 07:01N 39°48' W 075°26'0 0.0
2017-Sep-15 06:31N 39°48' W 075°26'0 0.0
2017-Sep-15 06:00N 39°48' W 075°26'0 0.0
2017-Sep-15 05:31N 39°48' W 075°26'0 0.0
2017-Sep-15 05:00N 39°48' W 075°26'1 2.0
2017-Sep-15 04:30N 39°48' W 075°25'0 0.2
2017-Sep-15 04:00N 39°48' W 075°25'0 0.6
2017-Sep-15 03:31N 39°49' W 075°24'1 2.5
2017-Sep-15 03:00N 39°48' W 075°26'4 8.7
2017-Sep-15 02:31N 39°45' W 075°30'2 4.0
2017-Sep-15 02:00N 39°43' W 075°31'0 0.0
2017-Sep-15 01:30N 39°43' W 075°31'0 0.0
2017-Sep-15 01:00N 39°43' W 075°31'0 0.0
2017-Sep-15 00:30N 39°43' W 075°31'0 0.4
2017-Sep-15 00:00N 39°43' W 075°31'5 9.3
2017-Sep-14 23:30N 39°47' W 075°28'2 4.6
2017-Sep-14 23:00N 39°48' W 075°25'0 0.4
2017-Sep-14 22:30N 39°48' W 075°25'0 0.2
2017-Sep-14 22:00N 39°48' W 075°25'4 7.4
2017-Sep-14 21:30N 39°46' W 075°29'3 6.6
2017-Sep-14 21:00N 39°43' W 075°31'0 0.0
2017-Sep-14 20:30N 39°43' W 075°31'0 0.0
2017-Sep-14 20:00N 39°43' W 075°31'0 0.0
2017-Sep-14 19:30N 39°43' W 075°31'0 0.0
2017-Sep-14 19:00N 39°43' W 075°31'0 0.0
2017-Sep-14 18:30N 39°43' W 075°31'0 0.0
2017-Sep-14 18:00N 39°43' W 075°31'0 0.0
2017-Sep-14 17:30N 39°43' W 075°31'0 0.0
2017-Sep-14 17:00N 39°43' W 075°31'0 0.0
2017-Sep-14 16:30N 39°43' W 075°31'0 0.0
2017-Sep-14 16:00N 39°43' W 075°31'0 0.0
2017-Sep-14 15:30N 39°43' W 075°31'0 0.0
2017-Sep-14 15:00N 39°43' W 075°31'0 0.0
2017-Sep-14 14:30N 39°43' W 075°31'0 0.0
2017-Sep-14 14:01N 39°43' W 075°31'0 0.0
2017-Sep-14 13:30N 39°43' W 075°31'0 0.0
2017-Sep-14 13:00N 39°43' W 075°31'0 0.0
2017-Sep-14 12:31N 39°43' W 075°31'0 0.0
2017-Sep-14 12:01N 39°43' W 075°31'0 0.0
2017-Sep-14 11:31N 39°43' W 075°31'0 0.0
2017-Sep-14 11:01N 39°43' W 075°31'0 0.0
2017-Sep-14 10:31N 39°43' W 075°31'0 0.0
2017-Sep-14 10:01N 39°43' W 075°31'  

Dump ship's entire track history